sensor_id;sensor_type;location;lat;lon;timestamp;pressure;altitude;pressure_sealevel;temperature
78225;BMP280;67498;53.650;10.090;2023-11-21T00:58:32;100933.56;;;7.74
78225;BMP280;67498;53.650;10.090;2023-11-21T01:26:52;101001.78;;;7.46
78225;BMP280;67498;53.650;10.090;2023-11-21T01:29:43;100995.41;;;7.40
78225;BMP280;67498;53.650;10.090;2023-11-21T01:32:27;101011.00;;;7.44
78225;BMP280;67498;53.650;10.090;2023-11-21T01:35:03;101000.97;;;7.35
78225;BMP280;67498;53.650;10.090;2023-11-21T01:37:30;101012.84;;;7.40
78225;BMP280;67498;53.650;10.090;2023-11-21T01:40:16;101021.72;;;7.39
78225;BMP280;67498;53.650;10.090;2023-11-21T01:42:59;101008.69;;;7.28
78225;BMP280;67498;53.650;10.090;2023-11-21T01:45:36;101009.81;;;7.31
78225;BMP280;67498;53.650;10.090;2023-11-21T01:48:04;101019.88;;;7.32
78225;BMP280;67498;53.650;10.090;2023-11-21T01:50:32;101023.16;;;7.29
78225;BMP280;67498;53.650;10.090;2023-11-21T01:53:02;101015.75;;;7.27
78225;BMP280;67498;53.650;10.090;2023-11-21T01:55:51;101030.19;;;7.28
78225;BMP280;67498;53.650;10.090;2023-11-21T02:01:54;101021.59;;;7.17
78225;BMP280;67498;53.650;10.090;2023-11-21T02:04:36;101035.69;;;7.16
78225;BMP280;67498;53.650;10.090;2023-11-21T02:07:25;101033.75;;;7.06
78225;BMP280;67498;53.650;10.090;2023-11-21T02:12:32;101046.81;;;7.13
78225;BMP280;67498;53.650;10.090;2023-11-21T02:14:58;101026.59;;;6.92
78225;BMP280;67498;53.650;10.090;2023-11-21T02:17:28;101050.81;;;7.07
78225;BMP280;67498;53.650;10.090;2023-11-21T02:20:21;101048.16;;;6.96
78225;BMP280;67498;53.650;10.090;2023-11-21T02:23:28;101060.81;;;7.05
78225;BMP280;67498;53.650;10.090;2023-11-21T02:26:01;101058.94;;;7.02
78225;BMP280;67498;53.650;10.090;2023-11-21T02:28:44;101073.03;;;7.04
78225;BMP280;67498;53.650;10.090;2023-11-21T02:31:25;101073.38;;;6.99
78225;BMP280;67498;53.650;10.090;2023-11-21T02:34:29;101073.78;;;7.01
78225;BMP280;67498;53.650;10.090;2023-11-21T02:36:58;101078.94;;;6.98
78225;BMP280;67498;53.650;10.090;2023-11-21T02:39:36;101064.38;;;6.90
78225;BMP280;67498;53.650;10.090;2023-11-21T02:42:03;101089.69;;;7.00
78225;BMP280;67498;53.650;10.090;2023-11-21T02:44:29;101080.34;;;6.92
78225;BMP280;67498;53.650;10.090;2023-11-21T02:47:00;101089.28;;;6.94
78225;BMP280;67498;53.650;10.090;2023-11-21T02:49:59;101091.81;;;6.91
78225;BMP280;67498;53.650;10.090;2023-11-21T02:52:25;101082.44;;;6.79
78225;BMP280;67498;53.650;10.090;2023-11-21T02:54:51;101095.50;;;6.86
78225;BMP280;67498;53.650;10.090;2023-11-21T02:57:40;101101.47;;;6.87
78225;BMP280;67498;53.650;10.090;2023-11-21T03:00:13;101077.88;;;6.69
78225;BMP280;67498;53.650;10.090;2023-11-21T03:02:54;101101.00;;;6.81
78225;BMP280;67498;53.650;10.090;2023-11-21T03:05:25;101101.72;;;6.78
78225;BMP280;67498;53.650;10.090;2023-11-21T03:08:05;101103.19;;;6.79
78225;BMP280;67498;53.650;10.090;2023-11-21T03:10:49;101091.66;;;6.73
78225;BMP280;67498;53.650;10.090;2023-11-21T03:13:20;101102.78;;;6.73
78225;BMP280;67498;53.650;10.090;2023-11-21T03:16:19;101093.00;;;6.59
78225;BMP280;67498;53.650;10.090;2023-11-21T03:19:09;101103.03;;;6.61
78225;BMP280;67498;53.650;10.090;2023-11-21T03:22:04;101117.16;;;6.67
78225;BMP280;67498;53.650;10.090;2023-11-21T03:24:42;101122.75;;;6.69
78225;BMP280;67498;53.650;10.090;2023-11-21T03:27:21;101117.47;;;6.62
78225;BMP280;67498;53.650;10.090;2023-11-21T03:30:28;101132.72;;;6.67
78225;BMP280;67498;53.650;10.090;2023-11-21T03:33:03;101119.97;;;6.55
78225;BMP280;67498;53.650;10.090;2023-11-21T03:35:33;101136.38;;;6.63
78225;BMP280;67498;53.650;10.090;2023-11-21T03:38:15;101144.53;;;6.61
78225;BMP280;67498;53.650;10.090;2023-11-21T03:41:01;101142.28;;;6.59
78225;BMP280;67498;53.650;10.090;2023-11-21T03:43:40;101154.16;;;6.60
78225;BMP280;67498;53.650;10.090;2023-11-21T03:46:10;101157.50;;;6.61
78225;BMP280;67498;53.650;10.090;2023-11-21T03:48:41;101159.72;;;6.63
78225;BMP280;67498;53.650;10.090;2023-11-21T03:51:07;101163.78;;;6.60
78225;BMP280;67498;53.650;10.090;2023-11-21T03:53:32;101175.25;;;6.59
78225;BMP280;67498;53.650;10.090;2023-11-21T03:56:02;101163.72;;;6.56
78225;BMP280;67498;53.650;10.090;2023-11-21T03:58:39;101179.34;;;6.60
78225;BMP280;67498;53.650;10.090;2023-11-21T04:01:05;101183.44;;;6.61
78225;BMP280;67498;53.650;10.090;2023-11-21T04:03:30;101189.00;;;6.63
78225;BMP280;67498;53.650;10.090;2023-11-21T04:05:56;101192.34;;;6.64
78225;BMP280;67498;53.650;10.090;2023-11-21T04:08:22;101182.28;;;6.58
78225;BMP280;67498;53.650;10.090;2023-11-21T04:10:47;101191.59;;;6.63
78225;BMP280;67498;53.650;10.090;2023-11-21T04:13:16;101181.88;;;6.56
78225;BMP280;67498;53.650;10.090;2023-11-21T04:15:42;101187.81;;;6.57
78225;BMP280;67498;53.650;10.090;2023-11-21T04:18:11;101208.66;;;6.64
78225;BMP280;67498;53.650;10.090;2023-11-21T04:20:36;101210.16;;;6.65
78225;BMP280;67498;53.650;10.090;2023-11-21T04:23:02;101192.53;;;6.48
78225;BMP280;67498;53.650;10.090;2023-11-21T04:25:31;101213.84;;;6.64
78225;BMP280;67498;53.650;10.090;2023-11-21T04:27:56;101222.72;;;6.63
78225;BMP280;67498;53.650;10.090;2023-11-21T04:30:24;101216.41;;;6.60
78225;BMP280;67498;53.650;10.090;2023-11-21T04:32:49;101219.03;;;6.64
78225;BMP280;67498;53.650;10.090;2023-11-21T04:35:16;101212.28;;;6.56
78225;BMP280;67498;53.650;10.090;2023-11-21T04:37:41;101225.72;;;6.65
78225;BMP280;67498;53.650;10.090;2023-11-21T04:40:07;101228.69;;;6.67
78225;BMP280;67498;53.650;10.090;2023-11-21T04:42:37;101213.34;;;6.55
78225;BMP280;67498;53.650;10.090;2023-11-21T04:45:08;101236.44;;;6.64
78225;BMP280;67498;53.650;10.090;2023-11-21T04:47:43;101205.09;;;6.46
78225;BMP280;67498;53.650;10.090;2023-11-21T04:50:09;101225.59;;;6.54
78225;BMP280;67498;53.650;10.090;2023-11-21T04:52:34;101243.91;;;6.65
78225;BMP280;67498;53.650;10.090;2023-11-21T04:55:00;101244.59;;;6.62
78225;BMP280;67498;53.650;10.090;2023-11-21T04:57:29;101238.25;;;6.59
78225;BMP280;67498;53.650;10.090;2023-11-21T04:59:55;101252.75;;;6.60
78225;BMP280;67498;53.650;10.090;2023-11-21T05:02:24;101247.47;;;6.57
78225;BMP280;67498;53.650;10.090;2023-11-21T05:04:50;101266.78;;;6.59
78225;BMP280;67498;53.650;10.090;2023-11-21T05:07:21;101254.81;;;6.51
78225;BMP280;67498;53.650;10.090;2023-11-21T05:09:48;101264.09;;;6.52
78225;BMP280;67498;53.650;10.090;2023-11-21T05:12:16;101262.63;;;6.55
78225;BMP280;67498;53.650;10.090;2023-11-21T05:14:43;101267.81;;;6.55
78225;BMP280;67498;53.650;10.090;2023-11-21T05:17:11;101276.34;;;6.55
78225;BMP280;67498;53.650;10.090;2023-11-21T05:19:37;101278.59;;;6.57
78225;BMP280;67498;53.650;10.090;2023-11-21T05:22:03;101276.03;;;6.57
78225;BMP280;67498;53.650;10.090;2023-11-21T05:24:34;101265.03;;;6.41
78225;BMP280;67498;53.650;10.090;2023-11-21T05:27:00;101288.25;;;6.56
78225;BMP280;67498;53.650;10.090;2023-11-21T05:29:25;101280.47;;;6.56
78225;BMP280;67498;53.650;10.090;2023-11-21T05:31:51;101288.28;;;6.60
78225;BMP280;67498;53.650;10.090;2023-11-21T05:34:16;101281.94;;;6.57
78225;BMP280;67498;53.650;10.090;2023-11-21T05:36:45;101289.81;;;6.61
78225;BMP280;67498;53.650;10.090;2023-11-21T05:39:11;101295.69;;;6.58
78225;BMP280;67498;53.650;10.090;2023-11-21T05:41:37;101297.50;;;6.57
78225;BMP280;67498;53.650;10.090;2023-11-21T05:44:05;101296.03;;;6.56
78225;BMP280;67498;53.650;10.090;2023-11-21T05:46:30;101302.28;;;6.55
78225;BMP280;67498;53.650;10.090;2023-11-21T05:48:56;101298.16;;;6.51
78225;BMP280;67498;53.650;10.090;2023-11-21T05:51:21;101328.72;;;6.65
78225;BMP280;67498;53.650;10.090;2023-11-21T05:53:47;101320.84;;;6.57
78225;BMP280;67498;53.650;10.090;2023-11-21T05:56:12;101320.19;;;6.64
78225;BMP280;67498;53.650;10.090;2023-11-21T05:58:39;101340.22;;;6.64
78225;BMP280;67498;53.650;10.090;2023-11-21T06:01:07;101349.84;;;6.63
78225;BMP280;67498;53.650;10.090;2023-11-21T06:03:34;101353.56;;;6.62
78225;BMP280;67498;53.650;10.090;2023-11-21T06:06:03;101354.25;;;6.59
78225;BMP280;67498;53.650;10.090;2023-11-21T06:08:29;101361.69;;;6.60
78225;BMP280;67498;53.650;10.090;2023-11-21T06:10:55;101353.44;;;6.55
78225;BMP280;67498;53.650;10.090;2023-11-21T06:13:21;101363.50;;;6.60
78225;BMP280;67498;53.650;10.090;2023-11-21T06:15:50;101370.22;;;6.61
78225;BMP280;67498;53.650;10.090;2023-11-21T06:18:16;101366.41;;;6.55
78225;BMP280;67498;53.650;10.090;2023-11-21T06:20:44;101376.16;;;6.62
78225;BMP280;67498;53.650;10.090;2023-11-21T06:23:10;101382.47;;;6.64
78225;BMP280;67498;53.650;10.090;2023-11-21T06:25:41;101374.69;;;6.64
78225;BMP280;67498;53.650;10.090;2023-11-21T06:28:07;101383.63;;;6.67
78225;BMP280;67498;53.650;10.090;2023-11-21T06:30:32;101392.16;;;6.67
78225;BMP280;67498;53.650;10.090;2023-11-21T06:32:58;101386.22;;;6.67
78225;BMP280;67498;53.650;10.090;2023-11-21T06:35:27;101394.00;;;6.67
78225;BMP280;67498;53.650;10.090;2023-11-21T06:37:55;101401.03;;;6.66
78225;BMP280;67498;53.650;10.090;2023-11-21T06:40:20;101392.84;;;6.64
78225;BMP280;67498;53.650;10.090;2023-11-21T06:42:49;101396.97;;;6.65
78225;BMP280;67498;53.650;10.090;2023-11-21T06:45:18;101402.47;;;6.64
78225;BMP280;67498;53.650;10.090;2023-11-21T06:47:43;101424.09;;;6.71
78225;BMP280;67498;53.650;10.090;2023-11-21T06:50:09;101410.31;;;6.67
78225;BMP280;67498;53.650;10.090;2023-11-21T06:52:39;101417.03;;;6.68
78225;BMP280;67498;53.650;10.090;2023-11-21T06:55:04;101424.06;;;6.68
78225;BMP280;67498;53.650;10.090;2023-11-21T06:57:33;101431.16;;;6.71
78225;BMP280;67498;53.650;10.090;2023-11-21T07:00:06;101424.72;;;6.65
78225;BMP280;67498;53.650;10.090;2023-11-21T07:02:34;101442.16;;;6.64
78225;BMP280;67498;53.650;10.090;2023-11-21T07:05:00;101449.22;;;6.67
78225;BMP280;67498;53.650;10.090;2023-11-21T07:07:27;101440.97;;;6.58
78225;BMP280;67498;53.650;10.090;2023-11-21T07:09:53;101452.53;;;6.64
78225;BMP280;67498;53.650;10.090;2023-11-21T07:12:23;101452.13;;;6.62
78225;BMP280;67498;53.650;10.090;2023-11-21T07:14:51;101464.41;;;6.65
78225;BMP280;67498;53.650;10.090;2023-11-21T07:17:18;101462.50;;;6.62
78225;BMP280;67498;53.650;10.090;2023-11-21T07:19:47;101468.81;;;6.61
78225;BMP280;67498;53.650;10.090;2023-11-21T07:22:17;101484.00;;;6.63
78225;BMP280;67498;53.650;10.090;2023-11-21T07:24:49;101493.69;;;6.66
78225;BMP280;67498;53.650;10.090;2023-11-21T07:27:25;101484.28;;;6.57
78225;BMP280;67498;53.650;10.090;2023-11-21T07:29:50;101497.38;;;6.65
78225;BMP280;67498;53.650;10.090;2023-11-21T07:32:16;101486.47;;;6.55
78225;BMP280;67498;53.650;10.090;2023-11-21T07:34:41;101483.88;;;6.55
78225;BMP280;67498;53.650;10.090;2023-11-21T07:37:12;101504.50;;;6.68
78225;BMP280;67498;53.650;10.090;2023-11-21T07:39:40;101500.69;;;6.62
78225;BMP280;67498;53.650;10.090;2023-11-21T07:42:09;101494.59;;;6.54
78225;BMP280;67498;53.650;10.090;2023-11-21T07:44:37;101507.34;;;6.63
78225;BMP280;67498;53.650;10.090;2023-11-21T07:47:03;101520.44;;;6.70
78225;BMP280;67498;53.650;10.090;2023-11-21T07:49:32;101524.47;;;6.67
78225;BMP280;67498;53.650;10.090;2023-11-21T07:52:03;101528.59;;;6.68
78225;BMP280;67498;53.650;10.090;2023-11-21T07:54:31;101507.56;;;6.54
78225;BMP280;67498;53.650;10.090;2023-11-21T07:57:02;101503.97;;;6.58
78225;BMP280;67498;53.650;10.090;2023-11-21T07:59:39;101524.91;;;6.69
78225;BMP280;67498;53.650;10.090;2023-11-21T08:02:16;101516.03;;;6.70
78225;BMP280;67498;53.650;10.090;2023-11-21T08:04:50;101527.91;;;6.71
78225;BMP280;67498;53.650;10.090;2023-11-21T08:07:17;101529.44;;;6.72
78225;BMP280;67498;53.650;10.090;2023-11-21T08:09:45;101532.75;;;6.73
78225;BMP280;67498;53.650;10.090;2023-11-21T08:12:11;101539.50;;;6.77
78225;BMP280;67498;53.650;10.090;2023-11-21T08:14:38;101544.69;;;6.77
78225;BMP280;67498;53.650;10.090;2023-11-21T08:17:04;101545.50;;;6.81
78225;BMP280;67498;53.650;10.090;2023-11-21T08:19:34;101565.25;;;6.86
78225;BMP280;67498;53.650;10.090;2023-11-21T08:22:02;101557.44;;;6.86
78225;BMP280;67498;53.650;10.090;2023-11-21T08:24:36;101561.47;;;6.83
78225;BMP280;67498;53.650;10.090;2023-11-21T08:27:14;101559.63;;;6.84
78225;BMP280;67498;53.650;10.090;2023-11-21T08:29:48;101567.50;;;6.88
78225;BMP280;67498;53.650;10.090;2023-11-21T08:32:16;101568.59;;;6.87
78225;BMP280;67498;53.650;10.090;2023-11-21T08:35:11;101576.41;;;6.90
78225;BMP280;67498;53.650;10.090;2023-11-21T08:37:45;101570.50;;;6.90
78225;BMP280;67498;53.650;10.090;2023-11-21T08:43:06;101572.59;;;6.84
78225;BMP280;67498;53.650;10.090;2023-11-21T08:48:38;101602.84;;;6.96
78225;BMP280;67498;53.650;10.090;2023-11-21T08:51:12;101612.59;;;7.02
78225;BMP280;67498;53.650;10.090;2023-11-21T08:53:54;101613.75;;;7.01
78225;BMP280;67498;53.650;10.090;2023-11-21T08:56:23;101621.13;;;7.03
78225;BMP280;67498;53.650;10.090;2023-11-21T08:58:53;101631.53;;;7.03
78225;BMP280;67498;53.650;10.090;2023-11-21T09:01:41;101629.22;;;6.98
78225;BMP280;67498;53.650;10.090;2023-11-21T09:04:29;101633.72;;;7.01
78225;BMP280;67498;53.650;10.090;2023-11-21T09:07:02;101624.03;;;6.98
78225;BMP280;67498;53.650;10.090;2023-11-21T09:09:56;101633.03;;;7.04
78225;BMP280;67498;53.650;10.090;2023-11-21T09:15:40;101628.44;;;6.94
78225;BMP280;67498;53.650;10.090;2023-11-21T09:18:22;101642.69;;;7.03
78225;BMP280;67498;53.650;10.090;2023-11-21T09:20:51;101648.22;;;7.02
78225;BMP280;67498;53.650;10.090;2023-11-21T09:23:28;101652.25;;;6.99
78225;BMP280;67498;53.650;10.090;2023-11-21T09:26:14;101665.38;;;7.06
78225;BMP280;67498;53.650;10.090;2023-11-21T09:29:01;101663.84;;;7.05
78225;BMP280;67498;53.650;10.090;2023-11-21T09:31:32;101670.28;;;7.12
78225;BMP280;67498;53.650;10.090;2023-11-21T09:37:31;101669.41;;;7.04
78225;BMP280;67498;53.650;10.090;2023-11-21T09:40:05;101676.75;;;7.02
78225;BMP280;67498;53.650;10.090;2023-11-21T09:43:06;101676.59;;;7.11
78225;BMP280;67498;53.650;10.090;2023-11-21T09:49:55;101673.63;;;7.12
78225;BMP280;67498;53.650;10.090;2023-11-21T09:52:44;101700.34;;;7.32
78225;BMP280;67498;53.650;10.090;2023-11-21T10:09:21;101709.47;;;7.45
78225;BMP280;67498;53.650;10.090;2023-11-21T10:12:32;101708.59;;;7.38
78225;BMP280;67498;53.650;10.090;2023-11-21T10:25:40;101721.84;;;7.75
78225;BMP280;67498;53.650;10.090;2023-11-21T10:28:22;101702.53;;;7.53
78225;BMP280;67498;53.650;10.090;2023-11-21T10:34:59;101740.75;;;7.72
78225;BMP280;67498;53.650;10.090;2023-11-21T10:37:50;101727.16;;;7.59
78225;BMP280;67498;53.650;10.090;2023-11-21T10:40:38;101727.34;;;7.50
78225;BMP280;67498;53.650;10.090;2023-11-21T12:03:16;101761.72;;;7.01
78225;BMP280;67498;53.650;10.090;2023-11-21T12:13:01;101790.06;;;7.10
78225;BMP280;67498;53.650;10.090;2023-11-21T12:19:08;101805.47;;;7.03
78225;BMP280;67498;53.650;10.090;2023-11-21T12:28:40;101825.03;;;6.97
78225;BMP280;67498;53.650;10.090;2023-11-21T12:31:20;101838.75;;;6.97
78225;BMP280;67498;53.650;10.090;2023-11-21T12:34:17;101837.16;;;6.93
78225;BMP280;67498;53.650;10.090;2023-11-21T12:37:04;101850.56;;;6.95
78225;BMP280;67498;53.650;10.090;2023-11-21T12:40:08;101854.34;;;6.97
78225;BMP280;67498;53.650;10.090;2023-11-21T12:43:20;101849.72;;;6.91
78225;BMP280;67498;53.650;10.090;2023-11-21T12:49:10;101846.66;;;6.85
78225;BMP280;67498;53.650;10.090;2023-11-21T12:51:48;101857.72;;;6.82
78225;BMP280;67498;53.650;10.090;2023-11-21T12:54:36;101868.84;;;6.82
78225;BMP280;67498;53.650;10.090;2023-11-21T12:57:08;101883.44;;;6.87
78225;BMP280;67498;53.650;10.090;2023-11-21T12:59:56;101866.09;;;6.75
78225;BMP280;67498;53.650;10.090;2023-11-21T13:02:54;101868.69;;;6.75
78225;BMP280;67498;53.650;10.090;2023-11-21T13:08:49;101891.53;;;6.86
78225;BMP280;67498;53.650;10.090;2023-11-21T13:11:42;101870.16;;;6.76
78225;BMP280;67498;53.650;10.090;2023-11-21T13:14:29;101885.72;;;6.76
78225;BMP280;67498;53.650;10.090;2023-11-21T13:17:21;101875.31;;;6.73
78225;BMP280;67498;53.650;10.090;2023-11-21T13:20:22;101874.69;;;6.64
78225;BMP280;67498;53.650;10.090;2023-11-21T13:23:20;101882.25;;;6.69
78225;BMP280;67498;53.650;10.090;2023-11-21T13:25:53;101890.78;;;6.69
78225;BMP280;67498;53.650;10.090;2023-11-21T13:28:48;101907.25;;;6.77
78225;BMP280;67498;53.650;10.090;2023-11-21T13:31:27;101894.72;;;6.63
78225;BMP280;67498;53.650;10.090;2023-11-21T13:34:06;101904.34;;;6.63
78225;BMP280;67498;53.650;10.090;2023-11-21T13:37:19;101925.50;;;6.65
78225;BMP280;67498;53.650;10.090;2023-11-21T13:39:57;101916.72;;;6.53
78225;BMP280;67498;53.650;10.090;2023-11-21T13:42:49;101929.94;;;6.64
78225;BMP280;67498;53.650;10.090;2023-11-21T13:45:27;101923.09;;;6.56
78225;BMP280;67498;53.650;10.090;2023-11-21T13:48:02;101917.13;;;6.55
78225;BMP280;67498;53.650;10.090;2023-11-21T13:50:51;101924.16;;;6.55
78225;BMP280;67498;53.650;10.090;2023-11-21T13:53:38;101938.41;;;6.61
78225;BMP280;67498;53.650;10.090;2023-11-21T13:56:37;101946.59;;;6.63
78225;BMP280;67498;53.650;10.090;2023-11-21T13:59:31;101936.22;;;6.47
78225;BMP280;67498;53.650;10.090;2023-11-21T14:02:12;101952.59;;;6.51
78225;BMP280;67498;53.650;10.090;2023-11-21T14:05:03;101939.13;;;6.46
78225;BMP280;67498;53.650;10.090;2023-11-21T14:07:47;101945.41;;;6.45
78225;BMP280;67498;53.650;10.090;2023-11-21T14:10:19;101968.84;;;6.48
78225;BMP280;67498;53.650;10.090;2023-11-21T14:13:06;101950.97;;;6.31
78225;BMP280;67498;53.650;10.090;2023-11-21T14:15:41;101963.63;;;6.32
78225;BMP280;67498;53.650;10.090;2023-11-21T14:18:13;101972.16;;;6.33
78225;BMP280;67498;53.650;10.090;2023-11-21T14:20:51;101968.69;;;6.29
78225;BMP280;67498;53.650;10.090;2023-11-21T14:23:39;101979.94;;;6.33
78225;BMP280;67498;53.650;10.090;2023-11-21T14:26:14;101984.16;;;6.25
78225;BMP280;67498;53.650;10.090;2023-11-21T14:28:44;101979.63;;;6.22
78225;BMP280;67498;53.650;10.090;2023-11-21T14:31:14;101986.22;;;6.20
78225;BMP280;67498;53.650;10.090;2023-11-21T14:33:46;101991.31;;;6.16
78225;BMP280;67498;53.650;10.090;2023-11-21T14:36:22;101974.19;;;5.99
78225;BMP280;67498;53.650;10.090;2023-11-21T14:38:53;102001.56;;;6.12
78225;BMP280;67498;53.650;10.090;2023-11-21T14:41:22;102003.41;;;6.12
78225;BMP280;67498;53.650;10.090;2023-11-21T14:43:48;102001.47;;;6.09
78225;BMP280;67498;53.650;10.090;2023-11-21T14:46:15;102010.38;;;6.08
78225;BMP280;67498;53.650;10.090;2023-11-21T14:48:55;102009.72;;;5.99
78225;BMP280;67498;53.650;10.090;2023-11-21T14:51:49;102012.94;;;5.96
78225;BMP280;67498;53.650;10.090;2023-11-21T14:54:43;102036.38;;;5.99
78225;BMP280;67498;53.650;10.090;2023-11-21T14:57:12;102040.28;;;5.93
78225;BMP280;67498;53.650;10.090;2023-11-21T14:59:48;102039.88;;;5.91
78225;BMP280;67498;53.650;10.090;2023-11-21T15:02:33;102025.47;;;5.81
78225;BMP280;67498;53.650;10.090;2023-11-21T15:05:23;102038.66;;;5.88
78225;BMP280;67498;53.650;10.090;2023-11-21T15:07:52;102022.47;;;5.67
78225;BMP280;67498;53.650;10.090;2023-11-21T15:10:28;102055.06;;;5.80
78225;BMP280;67498;53.650;10.090;2023-11-21T15:12:56;102075.59;;;5.85
78225;BMP280;67498;53.650;10.090;2023-11-21T15:19:10;102064.47;;;5.73
78225;BMP280;67498;53.650;10.090;2023-11-21T15:21:49;102064.03;;;5.70
78225;BMP280;67498;53.650;10.090;2023-11-21T15:24:15;102083.25;;;5.69
78225;BMP280;67498;53.650;10.090;2023-11-21T15:26:56;102089.19;;;5.70
78225;BMP280;67498;53.650;10.090;2023-11-21T15:29:22;102097.28;;;5.68
78225;BMP280;67498;53.650;10.090;2023-11-21T15:31:51;102094.16;;;5.63
78225;BMP280;67498;53.650;10.090;2023-11-21T15:34:24;102092.31;;;5.63
78225;BMP280;67498;53.650;10.090;2023-11-21T15:37:02;102080.53;;;5.54
78225;BMP280;67498;53.650;10.090;2023-11-21T15:39:36;102104.72;;;5.58
78225;BMP280;67498;53.650;10.090;2023-11-21T15:42:02;102088.41;;;5.45
78225;BMP280;67498;53.650;10.090;2023-11-21T15:44:34;102102.31;;;5.53
78225;BMP280;67498;53.650;10.090;2023-11-21T15:47:03;102098.44;;;5.46
78225;BMP280;67498;53.650;10.090;2023-11-21T15:49:36;102104.28;;;5.56
78225;BMP280;67498;53.650;10.090;2023-11-21T15:52:05;102088.28;;;5.41
78225;BMP280;67498;53.650;10.090;2023-11-21T15:54:31;102118.31;;;5.55
78225;BMP280;67498;53.650;10.090;2023-11-21T15:57:04;102113.00;;;5.51
78225;BMP280;67498;53.650;10.090;2023-11-21T15:59:31;102126.06;;;5.55
78225;BMP280;67498;53.650;10.090;2023-11-21T16:02:01;102129.00;;;5.53
78225;BMP280;67498;53.650;10.090;2023-11-21T16:04:40;102136.44;;;5.55
78225;BMP280;67498;53.650;10.090;2023-11-21T16:07:08;102129.09;;;5.44
78225;BMP280;67498;53.650;10.090;2023-11-21T16:09:38;102139.13;;;5.46
78225;BMP280;67498;53.650;10.090;2023-11-21T16:12:16;102147.97;;;5.45
78225;BMP280;67498;53.650;10.090;2023-11-21T16:14:56;102150.09;;;5.43
78225;BMP280;67498;53.650;10.090;2023-11-21T16:17:30;102168.78;;;5.48
78225;BMP280;67498;53.650;10.090;2023-11-21T16:20:00;102167.72;;;5.50
78225;BMP280;67498;53.650;10.090;2023-11-21T16:22:28;102163.63;;;5.48
78225;BMP280;67498;53.650;10.090;2023-11-21T16:25:10;102172.91;;;5.50
78225;BMP280;67498;53.650;10.090;2023-11-21T16:27:44;102163.69;;;5.40
78225;BMP280;67498;53.650;10.090;2023-11-21T16:30:13;102158.72;;;5.35
78225;BMP280;67498;53.650;10.090;2023-11-21T16:32:43;102175.75;;;5.36
78225;BMP280;67498;53.650;10.090;2023-11-21T16:35:11;102180.50;;;5.34
78225;BMP280;67498;53.650;10.090;2023-11-21T16:37:39;102188.91;;;5.31
78225;BMP280;67498;53.650;10.090;2023-11-21T16:40:07;102196.13;;;5.25
78225;BMP280;67498;53.650;10.090;2023-11-21T16:42:54;102202.06;;;5.25
78225;BMP280;67498;53.650;10.090;2023-11-21T16:45:34;102203.88;;;5.25
78225;BMP280;67498;53.650;10.090;2023-11-21T16:51:25;102232.66;;;5.23
78225;BMP280;67498;53.650;10.090;2023-11-21T16:53:56;102236.03;;;5.24
78225;BMP280;67498;53.650;10.090;2023-11-21T16:56:54;102229.38;;;5.14
78225;BMP280;67498;53.650;10.090;2023-11-21T16:59:34;102245.94;;;5.22
78225;BMP280;67498;53.650;10.090;2023-11-21T17:02:43;102257.19;;;5.26
78225;BMP280;67498;53.650;10.090;2023-11-21T17:05:22;102250.69;;;5.20
78225;BMP280;67498;53.650;10.090;2023-11-21T17:07:57;102252.81;;;5.18
78225;BMP280;67498;53.650;10.090;2023-11-21T17:10:22;102260.69;;;5.21
78225;BMP280;67498;53.650;10.090;2023-11-21T17:12:51;102254.69;;;5.09
78225;BMP280;67498;53.650;10.090;2023-11-21T17:15:17;102254.69;;;5.09
78225;BMP280;67498;53.650;10.090;2023-11-21T17:17:43;102266.00;;;5.04
78225;BMP280;67498;53.650;10.090;2023-11-21T17:20:09;102259.06;;;4.87
78225;BMP280;67498;53.650;10.090;2023-11-21T17:22:41;102267.13;;;4.86
78225;BMP280;67498;53.650;10.090;2023-11-21T17:25:09;102284.66;;;4.89
78225;BMP280;67498;53.650;10.090;2023-11-21T17:27:38;102265.25;;;4.74
78225;BMP280;67498;53.650;10.090;2023-11-21T17:30:04;102284.97;;;4.78
78225;BMP280;67498;53.650;10.090;2023-11-21T17:32:32;102277.84;;;4.75
78225;BMP280;67498;53.650;10.090;2023-11-21T17:35:00;102278.66;;;4.67
78225;BMP280;67498;53.650;10.090;2023-11-21T17:37:28;102291.88;;;4.74
78225;BMP280;67498;53.650;10.090;2023-11-21T17:39:54;102280.78;;;4.65
78225;BMP280;67498;53.650;10.090;2023-11-21T17:42:23;102300.69;;;4.73
78225;BMP280;67498;53.650;10.090;2023-11-21T17:44:49;102301.59;;;4.69
78225;BMP280;67498;53.650;10.090;2023-11-21T17:47:18;102301.16;;;4.67
78225;BMP280;67498;53.650;10.090;2023-11-21T17:49:44;102294.75;;;4.64
78225;BMP280;67498;53.650;10.090;2023-11-21T17:52:10;102295.84;;;4.63
78225;BMP280;67498;53.650;10.090;2023-11-21T17:57:23;102320.00;;;4.76
78225;BMP280;67498;53.650;10.090;2023-11-21T18:00:00;102316.25;;;4.65
78225;BMP280;67498;53.650;10.090;2023-11-21T18:02:33;102328.69;;;4.71
78225;BMP280;67498;53.650;10.090;2023-11-21T18:05:22;102329.63;;;4.67
78225;BMP280;67498;53.650;10.090;2023-11-21T18:08:00;102354.09;;;4.78
78225;BMP280;67498;53.650;10.090;2023-11-21T18:10:38;102344.06;;;4.68
78225;BMP280;67498;53.650;10.090;2023-11-21T18:15:52;102340.41;;;4.69
78225;BMP280;67498;53.650;10.090;2023-11-21T18:18:22;102351.53;;;4.69
78225;BMP280;67498;53.650;10.090;2023-11-21T18:21:14;102369.16;;;4.76
78225;BMP280;67498;53.650;10.090;2023-11-21T18:23:50;102354.56;;;4.63
78225;BMP280;67498;53.650;10.090;2023-11-21T18:26:19;102367.81;;;4.70
78225;BMP280;67498;53.650;10.090;2023-11-21T18:28:45;102361.44;;;4.58
78225;BMP280;67498;53.650;10.090;2023-11-21T18:31:21;102371.31;;;4.65
78225;BMP280;67498;53.650;10.090;2023-11-21T18:36:53;102356.56;;;4.57
78225;BMP280;67498;53.650;10.090;2023-11-21T18:39:20;102357.66;;;4.56
78225;BMP280;67498;53.650;10.090;2023-11-21T18:41:52;102356.56;;;4.57
78225;BMP280;67498;53.650;10.090;2023-11-21T18:47:41;102390.34;;;4.69
78225;BMP280;67498;53.650;10.090;2023-11-21T18:50:13;102379.38;;;4.64
78225;BMP280;67498;53.650;10.090;2023-11-21T18:52:45;102377.09;;;4.62
78225;BMP280;67498;53.650;10.090;2023-11-21T18:55:13;102394.91;;;4.72